Thrapston, United Kingdom
Current Conditions -  °F | °C
As of 11:50 AM on Wednesday 28 Jan 2015 (Local Time) from EGXT Reporting Station
Light Rain Light Rain  
Wind Chill: 32°   Ceiling: 3500
Heat Index: 43°   Visibility: 6mi
Dew Point: 36°   Wind: 31mph
Humidity: 76%   Direction: 290°WNW
Pressure: 29.41"   Gusts: 44mph
Location:  52.4°N, 0.54°W
Report Text: EGXT 281150Z 29027G38KT 9999 -RA SCT022 BKN035 06/02 Q0996 WHT
Loading
Personal Weather Stations






























Interactive Weather Map New forecast layout! Learn more

10-Day Weather Forecast

Advertisements
Track Severe Weather on mobile